< < Back
Terminal Aerodrome Forecast


Current Version              Previous Versions:   1  2  3  4  5  6  7  8  9  

Terminal Aerodrome Forecast

410
FTUS44 KMRX 282320
TAFTYS
TAF
KTYS 282320Z 2900/2924 23005KT P6SM SCT040 SCT150
     FM290200 00000KT P6SM BKN100
     FM290800 00000KT 4SM BR BKN100
     FM291300 VRB03KT P6SM BKN070=



Latest METAR

386
SAUS80 KWBC 291900 RRB
MTRTYS
METAR KTYS 291853Z 07009KT 10SM BKN048 BKN060 OVC250 28/18 A3009 RMK AO2
SLP178 T02780178


USA.gov is the U.S. government's official web portal to all federal, state and local government web resources and services.